Time;durP1;ratioP1;P1;durP2;ratioP2;P2;SDS_P1;SDS_P2;PMS_P1;PMS_P2;Temp;Humidity;BMP_temperature;BMP_pressure;BME280_temperature;BME280_humidity;BME280_pressure;Samples;Min_cycle;Max_cycle;Signal;HPM_P1;HPM_P2
2022/06/26 00:01:36;;;;;;;8.17;3.77;;;;;;;;;;7375465;19;20271;-75
2022/06/26 00:04:01;;;;;;;8.93;3.40;;;;;;;;;;7367477;19;20255;-75
2022/06/26 00:06:27;;;;;;;6.20;3.50;;;;;;;;;;7376599;19;20027;-75
2022/06/26 00:08:52;;;;;;;8.65;3.50;;;;;;;;;;7379798;19;20365;-74
2022/06/26 00:11:17;;;;;;;12.00;3.30;;;;;;;;;;7373507;19;20018;-75
2022/06/26 00:13:42;;;;;;;7.53;3.38;;;;;;;;;;7380179;19;20074;-76
2022/06/26 00:16:08;;;;;;;8.70;3.87;;;;;;;;;;7378421;19;20015;-77
2022/06/26 00:18:33;;;;;;;7.32;2.83;;;;;;;;;;7373535;19;20291;-74
2022/06/26 00:20:58;;;;;;;8.13;3.63;;;;;;;;;;7379378;19;20022;-75
2022/06/26 00:23:23;;;;;;;7.93;4.00;;;;;;;;;;7380716;19;20007;-75
2022/06/26 00:25:48;;;;;;;8.03;3.03;;;;;;;;;;7376560;19;20239;-75
2022/06/26 00:28:14;;;;;;;9.83;3.40;;;;;;;;;;7378222;19;20661;-75
2022/06/26 00:30:39;;;;;;;7.78;3.28;;;;;;;;;;7379652;19;20731;-75
2022/06/26 00:33:04;;;;;;;9.07;3.93;;;;;;;;;;7379478;19;20549;-75
2022/06/26 00:35:29;;;;;;;7.40;3.28;;;;;;;;;;7377422;19;21149;-75
2022/06/26 00:37:55;;;;;;;8.93;3.30;;;;;;;;;;7379040;19;19991;-76
2022/06/26 00:40:21;;;;;;;11.18;3.80;;;;;;;;;;7373307;19;20254;-74
2022/06/26 00:42:46;;;;;;;9.93;3.50;;;;;;;;;;7379881;19;20009;-75
2022/06/26 00:45:11;;;;;;;6.83;3.70;;;;;;;;;;7380714;19;20024;-75
2022/06/26 00:47:37;;;;;;;11.57;4.25;;;;;;;;;;7372717;19;20014;-75
2022/06/26 00:50:02;;;;;;;9.00;3.67;;;;;;;;;;7376935;19;20003;-75
2022/06/26 00:52:28;;;;;;;10.57;3.90;;;;;;;;;;7378893;19;20082;-75
2022/06/26 00:54:53;;;;;;;10.43;3.70;;;;;;;;;;7350888;19;20014;-75
2022/06/26 00:57:19;;;;;;;9.20;3.22;;;;;;;;;;7380851;19;20014;-76
2022/06/26 00:59:45;;;;;;;7.25;3.47;;;;;;;;;;7372393;19;20396;-74
2022/06/26 01:02:10;;;;;;;6.07;3.38;;;;;;;;;;7367806;19;20041;-75
2022/06/26 01:04:35;;;;;;;8.43;3.23;;;;;;;;;;7374158;19;20473;-76
2022/06/26 01:07:00;;;;;;;5.90;3.40;;;;;;;;;;7369471;19;20246;-75
2022/06/26 01:09:26;;;;;;;6.35;3.05;;;;;;;;;;7370186;19;20010;-75
2022/06/26 01:11:51;;;;;;;6.55;2.75;;;;;;;;;;7376738;19;20014;-75
2022/06/26 01:14:16;;;;;;;5.65;2.50;;;;;;;;;;7374871;19;20005;-75
2022/06/26 01:16:42;;;;;;;5.40;2.88;;;;;;;;;;7373621;19;20015;-75
2022/06/26 01:19:08;;;;;;;6.25;2.70;;;;;;;;;;7377318;19;20011;-76
2022/06/26 01:21:33;;;;;;;6.13;2.40;;;;;;;;;;7377809;19;20002;-75
2022/06/26 01:23:59;;;;;;;5.32;2.35;;;;;;;;;;7369983;19;20019;-76
2022/06/26 01:26:25;;;;;;;6.57;2.97;;;;;;;;;;7374618;19;20014;-75
2022/06/26 01:28:50;;;;;;;4.18;1.90;;;;;;;;;;7379228;19;20058;-75
2022/06/26 01:31:15;;;;;;;6.33;2.10;;;;;;;;;;7380619;19;20026;-76
2022/06/26 01:33:41;;;;;;;4.70;2.20;;;;;;;;;;7378681;19;20255;-76
2022/06/26 01:36:06;;;;;;;8.57;2.45;;;;;;;;;;7383621;19;20011;-75
2022/06/26 01:38:31;;;;;;;4.57;1.80;;;;;;;;;;7378544;19;20009;-76
2022/06/26 01:40:57;;;;;;;7.35;2.60;;;;;;;;;;7384871;19;20032;-74
2022/06/26 01:43:26;;;;;;;4.78;2.40;;;;;;;;;;7381133;19;20458;-77
2022/06/26 01:45:55;;;;;;;6.47;2.70;;;;;;;;;;7382990;19;20031;-77
2022/06/26 01:48:21;;;;;;;6.32;2.95;;;;;;;;;;7381423;19;20028;-77
2022/06/26 01:50:46;;;;;;;6.65;2.45;;;;;;;;;;7384797;19;20111;-75
2022/06/26 01:53:12;;;;;;;8.37;2.40;;;;;;;;;;7378123;19;19999;-75
2022/06/26 01:55:37;;;;;;;5.00;2.10;;;;;;;;;;7382317;19;20491;-76
2022/06/26 01:58:03;;;;;;;6.85;2.10;;;;;;;;;;7384636;19;20005;-75
2022/06/26 02:00:32;;;;;;;5.63;2.25;;;;;;;;;;7383368;19;20510;-77
2022/06/26 02:02:58;;;;;;;8.38;2.40;;;;;;;;;;7372285;19;20029;-77
2022/06/26 02:05:23;;;;;;;6.30;2.40;;;;;;;;;;7385237;19;20006;-77
2022/06/26 02:07:48;;;;;;;7.40;2.40;;;;;;;;;;7382143;19;20002;-78
2022/06/26 02:15:41;;;;;;;;;;;;;;;;;;7383490;19;20493;-75
2022/06/26 02:18:06;;;;;;;12.85;2.83;;;;;;;;;;7381170;19;20334;-75
2022/06/26 02:20:32;;;;;;;7.22;2.65;;;;;;;;;;7382743;19;20014;-75
2022/06/26 02:22:57;;;;;;;8.40;3.10;;;;;;;;;;7378921;19;20385;-76
2022/06/26 02:25:22;;;;;;;7.50;3.08;;;;;;;;;;7380883;19;20852;-75
2022/06/26 02:27:48;;;;;;;7.07;2.80;;;;;;;;;;7382943;19;20490;-75
2022/06/26 02:30:13;;;;;;;6.38;2.47;;;;;;;;;;7385287;19;19998;-75
2022/06/26 02:32:39;;;;;;;7.72;2.67;;;;;;;;;;7379920;19;20018;-74
2022/06/26 02:35:04;;;;;;;7.23;2.80;;;;;;;;;;7380985;19;20026;-74
2022/06/26 02:37:29;;;;;;;10.88;3.00;;;;;;;;;;7381771;19;20006;-75
2022/06/26 02:39:54;;;;;;;4.93;2.40;;;;;;;;;;7376015;19;20014;-76
2022/06/26 02:42:19;;;;;;;4.65;2.28;;;;;;;;;;7384274;19;20014;-76
2022/06/26 02:44:45;;;;;;;6.77;2.67;;;;;;;;;;7383315;19;20014;-74
2022/06/26 02:47:10;;;;;;;6.38;2.30;;;;;;;;;;7376176;19;20258;-75
2022/06/26 02:49:35;;;;;;;6.65;2.58;;;;;;;;;;7365315;19;20599;-77
2022/06/26 02:54:42;;;;;;;4.90;2.10;;;;;;;;;;7306269;19;20046;-82
2022/06/26 02:57:08;;;;;;;7.93;2.60;;;;;;;;;;7351690;19;20644;-81
2022/06/26 02:59:33;;;;;;;6.17;2.77;;;;;;;;;;7368827;19;19991;-79
2022/06/26 03:01:58;;;;;;;5.47;2.23;;;;;;;;;;7358949;19;20115;-81
2022/06/26 03:04:23;;;;;;;6.33;2.40;;;;;;;;;;7371018;19;20774;-80
2022/06/26 03:06:48;;;;;;;6.18;2.55;;;;;;;;;;7370569;19;20031;-81
2022/06/26 03:09:14;;;;;;;7.00;2.13;;;;;;;;;;7361985;19;20009;-82
2022/06/26 03:11:41;;;;;;;7.03;2.30;;;;;;;;;;7364476;19;20584;-80
2022/06/26 03:14:06;;;;;;;5.45;2.08;;;;;;;;;;7370222;19;20259;-82
2022/06/26 03:16:31;;;;;;;5.93;2.45;;;;;;;;;;7364348;19;20106;-82
2022/06/26 03:18:56;;;;;;;6.73;2.03;;;;;;;;;;7359242;19;20010;-82
2022/06/26 03:21:22;;;;;;;6.77;2.17;;;;;;;;;;7370001;19;20948;-82
2022/06/26 03:24:02;;;;;;;7.38;2.25;;;;;;;;;;7358917;19;20255;-79
2022/06/26 03:26:31;;;;;;;7.03;2.78;;;;;;;;;;7369746;19;20014;-79
2022/06/26 03:28:56;;;;;;;13.45;2.17;;;;;;;;;;7369106;19;20006;-82
2022/06/26 03:31:22;;;;;;;6.03;2.38;;;;;;;;;;7369787;19;20006;-81
2022/06/26 03:33:47;;;;;;;8.90;2.10;;;;;;;;;;7372413;19;20049;-82
2022/06/26 03:36:12;;;;;;;8.97;2.10;;;;;;;;;;7369300;19;19994;-81
2022/06/26 03:38:37;;;;;;;4.23;2.10;;;;;;;;;;7366873;19;20039;-80
2022/06/26 03:41:03;;;;;;;5.35;1.65;;;;;;;;;;7371955;19;20283;-81
2022/06/26 03:43:28;;;;;;;7.10;1.80;;;;;;;;;;7371616;19;19998;-80
2022/06/26 03:45:53;;;;;;;8.88;2.17;;;;;;;;;;7370086;19;20324;-79
2022/06/26 03:48:18;;;;;;;7.23;2.77;;;;;;;;;;7367583;19;20597;-79
2022/06/26 03:50:44;;;;;;;8.98;1.92;;;;;;;;;;7366690;19;20244;-82
2022/06/26 03:53:09;;;;;;;7.35;1.80;;;;;;;;;;7363168;19;20687;-80
2022/06/26 03:55:34;;;;;;;9.13;2.08;;;;;;;;;;7371239;19;20018;-79
2022/06/26 03:58:00;;;;;;;5.45;1.90;;;;;;;;;;7370470;19;20091;-79
2022/06/26 04:00:26;;;;;;;4.35;1.90;;;;;;;;;;7370787;19;20081;-80
2022/06/26 04:02:51;;;;;;;8.95;1.77;;;;;;;;;;7361516;19;20486;-79
2022/06/26 04:05:16;;;;;;;7.37;2.07;;;;;;;;;;7371987;19;19999;-82
2022/06/26 04:07:41;;;;;;;13.57;2.58;;;;;;;;;;7368766;19;20014;-80
2022/06/26 04:10:07;;;;;;;8.97;2.07;;;;;;;;;;7363617;19;20011;-79
2022/06/26 04:12:32;;;;;;;8.82;2.08;;;;;;;;;;7369599;19;20097;-82
2022/06/26 04:14:57;;;;;;;6.63;1.80;;;;;;;;;;7371646;19;20033;-79
2022/06/26 04:17:22;;;;;;;5.30;1.70;;;;;;;;;;7365094;19;20267;-80
2022/06/26 04:19:49;;;;;;;4.87;2.00;;;;;;;;;;7368636;19;20286;-82
2022/06/26 04:22:14;;;;;;;4.40;1.85;;;;;;;;;;7371072;19;20270;-79
2022/06/26 04:24:39;;;;;;;6.43;2.20;;;;;;;;;;7365790;19;20062;-79
2022/06/26 04:27:04;;;;;;;8.33;2.13;;;;;;;;;;7370827;19;20881;-80
2022/06/26 04:29:30;;;;;;;8.48;1.88;;;;;;;;;;7371793;19;20007;-80
2022/06/26 04:31:55;;;;;;;6.97;2.17;;;;;;;;;;7362115;19;19998;-81
2022/06/26 04:34:20;;;;;;;7.73;2.20;;;;;;;;;;7368969;19;20264;-81
2022/06/26 04:36:45;;;;;;;6.00;2.05;;;;;;;;;;7367404;19;20289;-80
2022/06/26 04:39:10;;;;;;;5.65;1.90;;;;;;;;;;7365095;19;20017;-79
2022/06/26 04:41:36;;;;;;;7.07;2.17;;;;;;;;;;7372017;19;20018;-81
2022/06/26 04:44:02;;;;;;;4.28;1.80;;;;;;;;;;7366578;19;20894;-79
2022/06/26 04:46:27;;;;;;;4.60;1.80;;;;;;;;;;7370203;19;20038;-81
2022/06/26 04:48:52;;;;;;;6.00;2.20;;;;;;;;;;7370105;19;20557;-82
2022/06/26 04:51:18;;;;;;;7.00;2.10;;;;;;;;;;7370776;19;20141;-81
2022/06/26 04:53:43;;;;;;;7.22;2.33;;;;;;;;;;7360330;19;20006;-79
2022/06/26 04:56:08;;;;;;;8.68;1.90;;;;;;;;;;7369993;19;20011;-79
2022/06/26 04:58:33;;;;;;;5.10;2.00;;;;;;;;;;7366618;19;20114;-79
2022/06/26 05:00:59;;;;;;;7.00;2.07;;;;;;;;;;7369512;19;20255;-80
2022/06/26 05:03:24;;;;;;;5.57;1.90;;;;;;;;;;7369387;19;20023;-80
2022/06/26 05:05:49;;;;;;;7.47;2.00;;;;;;;;;;7372710;19;20259;-81
2022/06/26 05:08:14;;;;;;;5.22;2.10;;;;;;;;;;7370557;19;20235;-80
2022/06/26 05:10:39;;;;;;;5.35;2.10;;;;;;;;;;7374581;19;20011;-79
2022/06/26 05:13:05;;;;;;;4.97;2.20;;;;;;;;;;7369566;19;20357;-80
2022/06/26 05:15:30;;;;;;;4.80;2.08;;;;;;;;;;7376003;19;20339;-80
2022/06/26 05:17:55;;;;;;;8.27;2.20;;;;;;;;;;7373888;19;20326;-81
2022/06/26 05:20:20;;;;;;;5.13;2.30;;;;;;;;;;7372984;19;20024;-82
2022/06/26 05:22:45;;;;;;;8.80;2.55;;;;;;;;;;7370865;19;20696;-82
2022/06/26 05:25:11;;;;;;;7.47;2.67;;;;;;;;;;7371986;19;20006;-80
2022/06/26 05:27:36;;;;;;;5.93;2.67;;;;;;;;;;7377720;19;20263;-79
2022/06/26 05:30:01;;;;;;;4.67;2.50;;;;;;;;;;7378763;19;20223;-81
2022/06/26 05:32:26;;;;;;;6.68;2.90;;;;;;;;;;7368654;19;20396;-79
2022/06/26 05:34:52;;;;;;;8.13;2.87;;;;;;;;;;7373704;19;20002;-80
2022/06/26 05:37:17;;;;;;;5.23;2.70;;;;;;;;;;7374143;19;20725;-79
2022/06/26 05:39:42;;;;;;;6.28;2.70;;;;;;;;;;7370053;19;20235;-79
2022/06/26 05:42:07;;;;;;;5.67;2.70;;;;;;;;;;7376305;19;20082;-78
2022/06/26 05:44:32;;;;;;;5.90;2.83;;;;;;;;;;7375829;19;20343;-80
2022/06/26 05:47:00;;;;;;;7.47;3.10;;;;;;;;;;7367184;19;20267;-79
2022/06/26 05:49:25;;;;;;;6.20;2.88;;;;;;;;;;7375743;19;20025;-80
2022/06/26 05:51:51;;;;;;;6.85;3.42;;;;;;;;;;7375929;19;20006;-81
2022/06/26 05:54:16;;;;;;;5.70;2.83;;;;;;;;;;7369999;19;20801;-81
2022/06/26 05:56:41;;;;;;;6.70;3.22;;;;;;;;;;7375481;19;19999;-79
2022/06/26 05:59:06;;;;;;;6.18;2.97;;;;;;;;;;7371947;19;20034;-81
2022/06/26 06:01:32;;;;;;;7.83;2.90;;;;;;;;;;7368134;19;20019;-79
2022/06/26 06:03:57;;;;;;;5.95;3.10;;;;;;;;;;7374900;19;20247;-81
2022/06/26 06:06:22;;;;;;;6.25;2.58;;;;;;;;;;7373873;19;20014;-79
2022/06/26 06:08:48;;;;;;;8.38;3.25;;;;;;;;;;7369141;19;20022;-80
2022/06/26 06:11:13;;;;;;;8.55;3.25;;;;;;;;;;7373961;19;19998;-80
2022/06/26 06:13:39;;;;;;;5.13;3.00;;;;;;;;;;7372257;19;20025;-80
2022/06/26 06:16:06;;;;;;;9.45;2.88;;;;;;;;;;7368454;19;20255;-81
2022/06/26 06:18:31;;;;;;;7.50;2.75;;;;;;;;;;7371000;19;19999;-82
2022/06/26 06:20:57;;;;;;;7.38;2.38;;;;;;;;;;7371208;19;20050;-79
2022/06/26 06:23:22;;;;;;;7.13;2.70;;;;;;;;;;7363675;19;20329;-80
2022/06/26 06:25:47;;;;;;;6.70;2.63;;;;;;;;;;7368053;19;20266;-78
2022/06/26 06:28:12;;;;;;;5.60;2.50;;;;;;;;;;7373162;19;20256;-81
2022/06/26 06:30:37;;;;;;;5.60;2.57;;;;;;;;;;7367670;19;20251;-79
2022/06/26 06:33:03;;;;;;;6.60;2.20;;;;;;;;;;7370890;19;20613;-82
2022/06/26 06:35:28;;;;;;;8.60;2.47;;;;;;;;;;7373094;19;20021;-79
2022/06/26 06:37:53;;;;;;;5.28;2.28;;;;;;;;;;7369826;19;20002;-80
2022/06/26 06:40:18;;;;;;;5.28;2.50;;;;;;;;;;7369618;19;20017;-80
2022/06/26 06:42:44;;;;;;;4.83;2.00;;;;;;;;;;7371717;19;20007;-80
2022/06/26 06:45:10;;;;;;;5.25;1.98;;;;;;;;;;7375480;19;20247;-80
2022/06/26 06:47:36;;;;;;;8.00;1.85;;;;;;;;;;7370713;19;20020;-80
2022/06/26 06:50:01;;;;;;;3.78;1.42;;;;;;;;;;7368941;19;20759;-80
2022/06/26 06:52:26;;;;;;;3.78;1.40;;;;;;;;;;7373137;19;20048;-80
2022/06/26 06:54:51;;;;;;;3.90;1.50;;;;;;;;;;7362900;19;20002;-81
2022/06/26 06:57:17;;;;;;;3.28;1.10;;;;;;;;;;7378091;19;20019;-79
2022/06/26 06:59:42;;;;;;;3.40;1.30;;;;;;;;;;7376170;19;19995;-81
2022/06/26 07:02:07;;;;;;;4.03;1.50;;;;;;;;;;7376516;19;20086;-79
2022/06/26 07:04:32;;;;;;;6.63;1.50;;;;;;;;;;7370320;19;20265;-80
2022/06/26 07:06:57;;;;;;;6.60;1.60;;;;;;;;;;7376983;19;20026;-79
2022/06/26 07:09:23;;;;;;;4.30;1.70;;;;;;;;;;7373277;19;20339;-79
2022/06/26 07:11:48;;;;;;;6.10;1.70;;;;;;;;;;7377719;19;20013;-81
2022/06/26 07:14:13;;;;;;;8.50;1.70;;;;;;;;;;7377475;19;20776;-80
2022/06/26 07:16:38;;;;;;;4.00;1.70;;;;;;;;;;7374999;19;20099;-81
2022/06/26 07:19:03;;;;;;;4.93;1.73;;;;;;;;;;7373215;19;20261;-82
2022/06/26 07:21:29;;;;;;;4.97;1.70;;;;;;;;;;7379709;19;20455;-81
2022/06/26 07:23:54;;;;;;;5.40;1.20;;;;;;;;;;7364463;19;19998;-80
2022/06/26 07:26:19;;;;;;;5.47;1.50;;;;;;;;;;7373152;19;20538;-80
2022/06/26 07:28:44;;;;;;;3.80;1.38;;;;;;;;;;7376908;19;20259;-79
2022/06/26 07:31:09;;;;;;;8.20;1.90;;;;;;;;;;7378836;19;20006;-81
2022/06/26 07:36:18;;;;;;;3.92;1.10;;;;;;;;;;7376511;19;20348;-79
2022/06/26 07:38:44;;;;;;;3.00;1.10;;;;;;;;;;7371499;19;20002;-83
2022/06/26 07:41:09;;;;;;;6.87;1.30;;;;;;;;;;7379227;19;20015;-81
2022/06/26 07:43:34;;;;;;;3.35;1.13;;;;;;;;;;7378078;19;20263;-85
2022/06/26 07:46:00;;;;;;;6.60;1.38;;;;;;;;;;7378033;19;20010;-81
2022/06/26 07:48:25;;;;;;;6.90;1.25;;;;;;;;;;7370654;19;20014;-82
2022/06/26 07:50:51;;;;;;;2.90;1.20;;;;;;;;;;7376015;19;20009;-81
2022/06/26 07:53:16;;;;;;;3.10;1.00;;;;;;;;;;7366303;19;20287;-81
2022/06/26 07:55:41;;;;;;;3.60;1.50;;;;;;;;;;7375842;19;20827;-81
2022/06/26 07:58:06;;;;;;;5.53;1.20;;;;;;;;;;7378023;19;20027;-82
2022/06/26 08:00:32;;;;;;;8.70;1.47;;;;;;;;;;7376443;19;20083;-80
2022/06/26 08:03:08;;;;;;;3.45;1.15;;;;;;;;;;7373496;19;20258;-80
2022/06/26 08:05:34;;;;;;;3.65;1.30;;;;;;;;;;7371813;19;20014;-83
2022/06/26 08:07:59;;;;;;;4.80;1.70;;;;;;;;;;7370405;19;20657;-80
2022/06/26 08:10:24;;;;;;;4.87;1.30;;;;;;;;;;7370181;19;20021;-80
2022/06/26 08:12:49;;;;;;;3.07;1.20;;;;;;;;;;7374512;19;20247;-80
2022/06/26 08:15:14;;;;;;;8.98;1.40;;;;;;;;;;7374697;19;20021;-82
2022/06/26 08:17:40;;;;;;;2.80;1.00;;;;;;;;;;7372825;19;20006;-82
2022/06/26 08:20:06;;;;;;;3.75;1.30;;;;;;;;;;7374694;19;20462;-81
2022/06/26 08:22:31;;;;;;;4.43;1.30;;;;;;;;;;7375303;19;20089;-82
2022/06/26 08:24:57;;;;;;;4.27;1.40;;;;;;;;;;7368529;19;20015;-83
2022/06/26 08:27:22;;;;;;;3.42;1.20;;;;;;;;;;7372849;19;20239;-81
2022/06/26 08:29:47;;;;;;;3.60;1.37;;;;;;;;;;7373049;19;20006;-83
2022/06/26 08:32:12;;;;;;;5.03;1.47;;;;;;;;;;7370698;19;20010;-81
2022/06/26 08:34:37;;;;;;;5.73;1.53;;;;;;;;;;7374557;19;20014;-80
2022/06/26 08:37:03;;;;;;;3.55;1.30;;;;;;;;;;7372539;19;20007;-80
2022/06/26 08:39:28;;;;;;;5.30;1.42;;;;;;;;;;7368037;19;20014;-81
2022/06/26 08:41:54;;;;;;;4.93;1.70;;;;;;;;;;7376741;19;20006;-79
2022/06/26 08:44:20;;;;;;;5.07;1.50;;;;;;;;;;7376975;19;20018;-83
2022/06/26 08:46:46;;;;;;;4.45;1.40;;;;;;;;;;7369819;19;20018;-83
2022/06/26 08:49:15;;;;;;;4.10;1.25;;;;;;;;;;7374121;19;20014;-81
2022/06/26 08:51:43;;;;;;;4.93;1.50;;;;;;;;;;7372436;19;20006;-81
2022/06/26 08:54:12;;;;;;;3.17;1.50;;;;;;;;;;7362605;19;20018;-81
2022/06/26 08:56:39;;;;;;;6.38;1.52;;;;;;;;;;7376246;19;20011;-80
2022/06/26 08:59:04;;;;;;;7.38;1.42;;;;;;;;;;7373697;19;20145;-83
2022/06/26 09:01:29;;;;;;;5.70;1.75;;;;;;;;;;7366584;19;20038;-83
2022/06/26 09:03:55;;;;;;;5.07;1.40;;;;;;;;;;7372018;19;20354;-81
2022/06/26 09:06:20;;;;;;;3.80;1.40;;;;;;;;;;7369546;19;20019;-80
2022/06/26 09:08:50;;;;;;;3.92;1.33;;;;;;;;;;7363888;19;20013;-81
2022/06/26 09:11:15;;;;;;;5.25;1.63;;;;;;;;;;7372219;19;20032;-84
2022/06/26 09:13:41;;;;;;;5.75;1.40;;;;;;;;;;7374145;19;21054;-81
2022/06/26 09:16:07;;;;;;;6.07;1.70;;;;;;;;;;7371799;19;20567;-80
2022/06/26 09:18:36;;;;;;;3.70;1.48;;;;;;;;;;7372206;19;19998;-82
2022/06/26 09:21:04;;;;;;;4.97;1.40;;;;;;;;;;7362539;19;20019;-81
2022/06/26 09:23:29;;;;;;;3.85;1.50;;;;;;;;;;7369486;19;20441;-81
2022/06/26 09:25:55;;;;;;;4.53;1.63;;;;;;;;;;7366331;19;20007;-81
2022/06/26 09:28:21;;;;;;;5.25;1.55;;;;;;;;;;7371886;19;20007;-81
2022/06/26 09:30:52;;;;;;;4.32;1.67;;;;;;;;;;7369543;19;20969;-83
2022/06/26 09:33:18;;;;;;;5.38;1.40;;;;;;;;;;7373001;19;19998;-81
2022/06/26 09:35:44;;;;;;;7.75;1.80;;;;;;;;;;7370109;19;20013;-85
2022/06/26 09:38:09;;;;;;;4.80;1.70;;;;;;;;;;7371001;19;20352;-81
2022/06/26 09:40:34;;;;;;;9.40;1.98;;;;;;;;;;7369550;19;20013;-84
2022/06/26 09:42:59;;;;;;;7.63;1.50;;;;;;;;;;7367563;19;20325;-81
2022/06/26 09:45:25;;;;;;;5.50;1.97;;;;;;;;;;7374543;19;20633;-80
2022/06/26 09:47:50;;;;;;;6.45;1.83;;;;;;;;;;7363008;19;20255;-83
2022/06/26 09:50:15;;;;;;;5.05;1.50;;;;;;;;;;7367474;19;20017;-80
2022/06/26 09:52:42;;;;;;;4.85;1.70;;;;;;;;;;7375914;19;20562;-81
2022/06/26 09:55:08;;;;;;;5.90;1.73;;;;;;;;;;7371043;19;20022;-83
2022/06/26 09:57:35;;;;;;;5.72;2.00;;;;;;;;;;7375627;19;20010;-81
2022/06/26 10:00:00;;;;;;;6.45;1.70;;;;;;;;;;7376725;19;19998;-80
2022/06/26 10:07:54;;;;;;;4.67;1.90;;;;;;;;;;7367188;19;19945;-82
2022/06/26 10:10:20;;;;;;;8.48;2.33;;;;;;;;;;7373256;19;20263;-81
2022/06/26 10:12:47;;;;;;;7.30;2.78;;;;;;;;;;7372940;19;20018;-82
2022/06/26 10:15:13;;;;;;;5.78;1.70;;;;;;;;;;7371919;19;20115;-81
2022/06/26 10:17:47;;;;;;;5.75;1.52;;;;;;;;;;7364876;19;20023;-82
2022/06/26 10:20:15;;;;;;;5.13;1.52;;;;;;;;;;7367385;19;20023;-82
2022/06/26 10:22:41;;;;;;;7.97;2.03;;;;;;;;;;7359347;19;20015;-82
2022/06/26 10:25:07;;;;;;;5.13;1.60;;;;;;;;;;7366553;19;20018;-81
2022/06/26 10:27:33;;;;;;;5.05;1.48;;;;;;;;;;7370223;19;20045;-82
2022/06/26 10:30:09;;;;;;;7.40;2.10;;;;;;;;;;7369847;19;20620;-82
2022/06/26 10:32:35;;;;;;;7.72;1.95;;;;;;;;;;7369512;19;20007;-81
2022/06/26 10:35:00;;;;;;;5.93;2.05;;;;;;;;;;7363418;19;20444;-81
2022/06/26 10:37:26;;;;;;;5.70;2.05;;;;;;;;;;7372644;19;20018;-81
2022/06/26 10:39:52;;;;;;;6.40;1.88;;;;;;;;;;7366829;19;20014;-80
2022/06/26 10:45:10;;;;;;;7.32;1.85;;;;;;;;;;7373093;19;20031;-81
2022/06/26 10:47:46;;;;;;;8.63;1.92;;;;;;;;;;7373557;19;20011;-80
2022/06/26 10:50:28;;;;;;;5.32;1.80;;;;;;;;;;7367034;19;20015;-81
2022/06/26 10:52:59;;;;;;;5.63;1.60;;;;;;;;;;7358545;19;20218;-80
2022/06/26 10:55:24;;;;;;;4.93;1.50;;;;;;;;;;7366765;19;20026;-80
2022/06/26 10:57:49;;;;;;;3.97;1.60;;;;;;;;;;7365118;19;19995;-80
2022/06/26 11:00:16;;;;;;;4.93;1.80;;;;;;;;;;7371960;19;20684;-80
2022/06/26 11:02:46;;;;;;;4.30;1.65;;;;;;;;;;7364795;19;20244;-81
2022/06/26 11:05:12;;;;;;;5.80;1.63;;;;;;;;;;7369428;19;20055;-80
2022/06/26 11:07:41;;;;;;;5.35;1.63;;;;;;;;;;7365028;19;20029;-83
2022/06/26 11:10:11;;;;;;;3.97;1.30;;;;;;;;;;7362315;19;20085;-79
2022/06/26 11:12:46;;;;;;;4.70;1.35;;;;;;;;;;7373622;19;19998;-80
2022/06/26 11:15:31;;;;;;;5.15;1.70;;;;;;;;;;7367731;19;20021;-80
2022/06/26 11:17:58;;;;;;;3.20;1.35;;;;;;;;;;7358145;19;20021;-80
2022/06/26 11:23:11;;;;;;;4.22;1.38;;;;;;;;;;7354096;19;20430;-82
2022/06/26 11:25:38;;;;;;;4.47;1.42;;;;;;;;;;7360036;19;20010;-82
2022/06/26 11:28:06;;;;;;;7.05;1.92;;;;;;;;;;7359856;19;20026;-80
2022/06/26 11:30:31;;;;;;;7.50;1.90;;;;;;;;;;7355817;19;20010;-84
2022/06/26 11:32:57;;;;;;;5.90;1.92;;;;;;;;;;7360008;19;20014;-81
2022/06/26 11:35:26;;;;;;;5.50;2.03;;;;;;;;;;7358590;19;20327;-83
2022/06/26 11:37:51;;;;;;;4.88;1.67;;;;;;;;;;7355839;19;20656;-81
2022/06/26 11:40:17;;;;;;;3.80;1.67;;;;;;;;;;7369931;19;20023;-81
2022/06/26 11:42:42;;;;;;;5.55;1.95;;;;;;;;;;7368962;19;20031;-81
2022/06/26 11:45:08;;;;;;;5.60;1.73;;;;;;;;;;7370813;19;20006;-80
2022/06/26 11:47:36;;;;;;;5.10;1.70;;;;;;;;;;7361607;19;20018;-80
2022/06/26 11:50:02;;;;;;;8.15;2.10;;;;;;;;;;7357942;19;20814;-80
2022/06/26 11:52:27;;;;;;;6.00;1.80;;;;;;;;;;7367871;19;20250;-82
2022/06/26 11:54:58;;;;;;;4.40;2.05;;;;;;;;;;7356430;19;19994;-80
2022/06/26 11:57:24;;;;;;;5.32;2.10;;;;;;;;;;7370135;19;20098;-80
2022/06/26 11:59:49;;;;;;;4.78;1.88;;;;;;;;;;7373495;19;20003;-80
2022/06/26 12:02:18;;;;;;;5.68;2.03;;;;;;;;;;7365409;19;20015;-80
2022/06/26 12:04:53;;;;;;;7.10;1.90;;;;;;;;;;7365067;19;20003;-82
2022/06/26 12:07:18;;;;;;;5.50;1.50;;;;;;;;;;7369554;19;20139;-81
2022/06/26 12:09:43;;;;;;;6.90;1.63;;;;;;;;;;7365891;19;20106;-81
2022/06/26 12:12:12;;;;;;;4.27;1.83;;;;;;;;;;7372370;19;20022;-80
2022/06/26 12:14:43;;;;;;;6.90;2.70;;;;;;;;;;7365404;19;20273;-80
2022/06/26 12:17:08;;;;;;;3.90;1.65;;;;;;;;;;7361369;19;20491;-82
2022/06/26 12:19:38;;;;;;;6.83;2.03;;;;;;;;;;7361551;19;20429;-81
2022/06/26 12:22:03;;;;;;;8.88;2.33;;;;;;;;;;7355142;19;20243;-81
2022/06/26 12:24:28;;;;;;;5.95;1.88;;;;;;;;;;7362786;19;20032;-82
2022/06/26 12:26:56;;;;;;;5.27;2.17;;;;;;;;;;7354769;19;20014;-80
2022/06/26 12:29:22;;;;;;;6.35;2.45;;;;;;;;;;7346787;19;20036;-81
2022/06/26 12:31:48;;;;;;;7.00;2.17;;;;;;;;;;7366141;19;20022;-81
2022/06/26 12:34:13;;;;;;;7.32;1.80;;;;;;;;;;7369584;19;20259;-80
2022/06/26 12:36:38;;;;;;;6.40;2.00;;;;;;;;;;7366179;19;20015;-81
2022/06/26 12:39:06;;;;;;;5.75;2.25;;;;;;;;;;7365277;19;20017;-81
2022/06/26 12:41:32;;;;;;;3.95;1.70;;;;;;;;;;7366376;19;20030;-80
2022/06/26 12:44:03;;;;;;;7.47;2.20;;;;;;;;;;7372305;19;20113;-82
2022/06/26 12:46:29;;;;;;;5.07;2.30;;;;;;;;;;7370130;19;20014;-80
2022/06/26 12:48:54;;;;;;;5.35;1.85;;;;;;;;;;7359712;19;20510;-82
2022/06/26 12:51:21;;;;;;;5.25;1.80;;;;;;;;;;7350783;19;20672;-80
2022/06/26 12:53:47;;;;;;;6.57;2.03;;;;;;;;;;7356862;19;20483;-79
2022/06/26 12:56:13;;;;;;;6.63;1.85;;;;;;;;;;7363395;19;20011;-80
2022/06/26 12:58:40;;;;;;;5.45;1.80;;;;;;;;;;7363157;19;20144;-79
2022/06/26 13:01:06;;;;;;;5.32;2.10;;;;;;;;;;7359850;19;20433;-80
2022/06/26 13:03:31;;;;;;;4.72;1.95;;;;;;;;;;7361017;19;20014;-81
2022/06/26 13:05:57;;;;;;;6.13;2.00;;;;;;;;;;7363707;19;20021;-80
2022/06/26 13:08:22;;;;;;;3.75;1.80;;;;;;;;;;7358412;19;20007;-83
2022/06/26 13:10:47;;;;;;;5.87;2.10;;;;;;;;;;7358826;19;20019;-79
2022/06/26 13:13:12;;;;;;;5.83;1.80;;;;;;;;;;7364105;19;20284;-79
2022/06/26 13:15:37;;;;;;;5.50;2.20;;;;;;;;;;7362535;19;20255;-80
2022/06/26 13:18:03;;;;;;;5.73;2.07;;;;;;;;;;7360943;19;20006;-80
2022/06/26 13:20:28;;;;;;;4.75;1.85;;;;;;;;;;7362531;19;20251;-81
2022/06/26 13:22:53;;;;;;;6.05;1.98;;;;;;;;;;7352673;19;19999;-80
2022/06/26 13:25:19;;;;;;;4.25;1.70;;;;;;;;;;7357605;19;20015;-80
2022/06/26 13:27:44;;;;;;;4.07;1.70;;;;;;;;;;7370533;19;20091;-83
2022/06/26 13:30:10;;;;;;;7.10;1.90;;;;;;;;;;7372921;19;19999;-81
2022/06/26 13:32:35;;;;;;;7.43;2.30;;;;;;;;;;7372080;19;20042;-80
2022/06/26 13:35:01;;;;;;;6.03;1.48;;;;;;;;;;7369324;19;20017;-81
2022/06/26 13:37:26;;;;;;;7.38;1.70;;;;;;;;;;7375678;19;20580;-80
2022/06/26 13:39:51;;;;;;;6.20;1.60;;;;;;;;;;7368241;19;19994;-79
2022/06/26 13:42:17;;;;;;;4.70;1.60;;;;;;;;;;7368471;19;20094;-82
2022/06/26 13:44:42;;;;;;;3.42;1.40;;;;;;;;;;7370000;19;20752;-82
2022/06/26 13:47:08;;;;;;;4.53;1.17;;;;;;;;;;7368801;19;20007;-79
2022/06/26 13:49:33;;;;;;;3.50;1.35;;;;;;;;;;7368785;19;19990;-82
2022/06/26 13:52:00;;;;;;;3.83;1.27;;;;;;;;;;7372062;19;19991;-79
2022/06/26 13:54:25;;;;;;;4.40;1.30;;;;;;;;;;7364288;19;20880;-81
2022/06/26 13:56:50;;;;;;;4.40;1.25;;;;;;;;;;7371694;19;20010;-84
2022/06/26 13:59:16;;;;;;;5.28;1.20;;;;;;;;;;7371364;19;20031;-81
2022/06/26 14:01:41;;;;;;;7.20;1.27;;;;;;;;;;7372077;19;20563;-83
2022/06/26 14:04:07;;;;;;;4.72;1.30;;;;;;;;;;7365792;19;20884;-83
2022/06/26 14:06:32;;;;;;;4.25;1.30;;;;;;;;;;7369420;19;20452;-81
2022/06/26 14:08:57;;;;;;;4.35;1.40;;;;;;;;;;7365137;19;20396;-80
2022/06/26 14:11:22;;;;;;;2.83;1.00;;;;;;;;;;7373816;19;20011;-82
2022/06/26 14:13:48;;;;;;;4.27;1.23;;;;;;;;;;7367923;19;20283;-82
2022/06/26 14:16:13;;;;;;;4.63;1.20;;;;;;;;;;7366777;19;20281;-82
2022/06/26 14:18:39;;;;;;;2.58;1.08;;;;;;;;;;7365799;19;20439;-82
2022/06/26 14:21:04;;;;;;;5.43;1.23;;;;;;;;;;7364480;19;20003;-83
2022/06/26 14:26:16;;;;;;;;;;;;;;;;;;7371687;19;20456;-81
2022/06/26 14:28:42;;;;;;;4.93;1.02;;;;;;;;;;7363756;19;20683;-80
2022/06/26 14:31:07;;;;;;;3.90;1.10;;;;;;;;;;7369835;19;20028;-80
2022/06/26 14:33:32;;;;;;;4.30;1.00;;;;;;;;;;7370231;19;20014;-82
2022/06/26 14:35:58;;;;;;;4.45;1.42;;;;;;;;;;7366993;19;20030;-83
2022/06/26 14:38:24;;;;;;;3.83;1.10;;;;;;;;;;7363157;19;20323;-80
2022/06/26 14:40:49;;;;;;;2.97;1.10;;;;;;;;;;7368595;19;20716;-80
2022/06/26 14:43:15;;;;;;;3.88;1.23;;;;;;;;;;7372330;19;20110;-81
2022/06/26 14:45:40;;;;;;;2.92;0.90;;;;;;;;;;7368366;19;20465;-80
2022/06/26 14:48:05;;;;;;;4.07;1.40;;;;;;;;;;7367729;19;20014;-80
2022/06/26 14:50:31;;;;;;;3.50;1.10;;;;;;;;;;7369179;19;20545;-80
2022/06/26 14:52:56;;;;;;;3.35;1.25;;;;;;;;;;7362722;19;20125;-83
2022/06/26 14:55:21;;;;;;;2.63;1.00;;;;;;;;;;7362659;19;20014;-81
2022/06/26 14:57:47;;;;;;;3.00;1.08;;;;;;;;;;7364747;19;20242;-80
2022/06/26 15:00:12;;;;;;;4.30;1.00;;;;;;;;;;7368702;19;20006;-81